Time;durP1;ratioP1;P1;durP2;ratioP2;P2;SDS_P1;SDS_P2;PMS_P1;PMS_P2;Temp;Humidity;BMP_temperature;BMP_pressure;BME280_temperature;BME280_humidity;BME280_pressure;Samples;Min_cycle;Max_cycle;Signal;HPM_P1;HPM_P2
2022/09/25 00:01:20;;;;;;;0.35;0.35;;;6.90;99.90;;;;;;5101470;28;20051;-78
2022/09/25 00:03:47;;;;;;;0.00;0.00;;;7.00;99.90;;;;;;5101203;28;20072;-77
2022/09/25 00:06:15;;;;;;;0.10;0.10;;;7.10;99.90;;;;;;5102453;28;20475;-77
2022/09/25 00:08:41;;;;;;;3.75;0.70;;;7.10;99.90;;;;;;5101188;28;20055;-76
2022/09/25 00:11:09;;;;;;;0.17;0.17;;;7.20;99.90;;;;;;5101710;28;20067;-77
2022/09/25 00:13:35;;;;;;;0.00;0.00;;;7.20;99.90;;;;;;5100953;28;20044;-78
2022/09/25 00:16:02;;;;;;;0.13;0.13;;;8.10;99.90;;;;;;5101189;28;20047;-78
2022/09/25 00:21:16;;;;;;;0.10;0.10;;;7.20;99.90;;;;;;5100978;28;20051;-79
2022/09/25 00:23:43;;;;;;;0.40;0.40;;;7.20;99.90;;;;;;5100614;28;20044;-79
2022/09/25 00:26:10;;;;;;;0.00;0.00;;;7.10;99.90;;;;;;5101443;28;20291;-78
2022/09/25 00:28:37;;;;;;;0.20;0.20;;;7.10;99.90;;;;;;5100895;28;20046;-79
2022/09/25 00:31:05;;;;;;;0.10;0.10;;;7.00;99.90;;;;;;5102130;28;20048;-78
2022/09/25 00:33:32;;;;;;;0.00;0.00;;;7.00;99.90;;;;;;5101161;28;20048;-78
2022/09/25 00:36:05;;;;;;;0.20;0.20;;;7.10;99.90;;;;;;5099732;28;20082;-77
2022/09/25 00:38:32;;;;;;;0.00;0.00;;;7.00;99.90;;;;;;5100066;28;20561;-80
2022/09/25 00:40:59;;;;;;;0.00;0.00;;;6.90;99.90;;;;;;5099921;28;20482;-80
2022/09/25 00:43:38;;;;;;;0.45;0.30;;;7.00;99.90;;;;;;5101073;28;20048;-77
2022/09/25 00:46:27;;;;;;;0.00;0.00;;;6.90;99.90;;;;;;5101640;28;20047;-77
2022/09/25 00:49:08;;;;;;;0.40;0.40;;;6.80;99.90;;;;;;5088121;28;20497;-78
2022/09/25 00:52:09;;;;;;;0.03;0.03;;;6.80;99.90;;;;;;5100986;28;20074;-77
2022/09/25 00:54:42;;;;;;;0.00;0.00;;;6.80;99.90;;;;;;5099505;28;20434;-77
2022/09/25 00:57:12;;;;;;;0.90;0.32;;;6.80;99.90;;;;;;5099248;28;20112;-78
2022/09/25 00:59:45;;;;;;;1.17;0.80;;;6.80;99.90;;;;;;5099325;28;20123;-77
2022/09/25 01:02:18;;;;;;;0.77;0.50;;;6.80;99.90;;;;;;5099223;28;20048;-78
2022/09/25 01:04:45;;;;;;;0.52;0.43;;;6.80;99.90;;;;;;5101786;28;20446;-76
2022/09/25 01:07:12;;;;;;;0.30;0.30;;;6.90;99.90;;;;;;5099416;28;20067;-79
2022/09/25 01:09:37;;;;;;;0.00;0.00;;;6.90;99.90;;;;;;5099246;28;20156;-77
2022/09/25 01:12:03;;;;;;;0.00;0.00;;;7.00;99.90;;;;;;5099300;28;20122;-78
2022/09/25 01:14:32;;;;;;;0.55;0.15;;;6.90;99.90;;;;;;5101063;28;20044;-79
2022/09/25 01:17:19;;;;;;;0.28;0.28;;;6.80;99.90;;;;;;5099636;28;20074;-77
2022/09/25 01:20:31;;;;;;;0.13;0.10;;;6.80;99.90;;;;;;5100372;28;20056;-78
2022/09/25 01:23:34;;;;;;;0.00;0.00;;;6.90;99.90;;;;;;5014361;28;20500;-77
2022/09/25 01:26:17;;;;;;;0.10;0.10;;;6.90;99.90;;;;;;5078940;28;20041;-76
2022/09/25 01:28:56;;;;;;;3.30;0.38;;;6.90;99.90;;;;;;5077906;28;20052;-78
2022/09/25 01:31:53;;;;;;;0.00;0.00;;;6.80;99.90;;;;;;5082861;28;20522;-77
2022/09/25 01:34:36;;;;;;;0.80;0.15;;;6.80;99.90;;;;;;5086976;28;20052;-80
2022/09/25 01:37:22;;;;;;;0.13;0.13;;;6.90;99.90;;;;;;5102657;28;20048;-77
2022/09/25 01:40:12;;;;;;;0.03;0.03;;;6.90;99.90;;;;;;5060540;28;20051;-77
2022/09/25 01:42:48;;;;;;;0.00;0.00;;;6.90;99.90;;;;;;5103783;28;20050;-80
2022/09/25 01:45:29;;;;;;;0.13;0.10;;;6.80;99.90;;;;;;5103773;28;20044;-76
2022/09/25 01:47:58;;;;;;;1.77;0.28;;;6.70;99.90;;;;;;5100002;28;20048;-77
2022/09/25 01:50:37;;;;;;;2.08;0.32;;;6.70;99.90;;;;;;5099908;28;20047;-76
2022/09/25 01:53:11;;;;;;;0.00;0.00;;;6.60;99.90;;;;;;5101758;28;20051;-78
2022/09/25 01:55:43;;;;;;;0.00;0.00;;;6.50;99.90;;;;;;5100124;28;20032;-76
2022/09/25 01:58:14;;;;;;;0.00;0.00;;;6.50;99.90;;;;;;5099479;28;20056;-78
2022/09/25 02:00:49;;;;;;;0.00;0.00;;;6.50;99.90;;;;;;5098947;28;20109;-77
2022/09/25 02:03:25;;;;;;;0.45;0.45;;;6.40;99.90;;;;;;5098700;28;20107;-78
2022/09/25 02:06:01;;;;;;;0.00;0.00;;;6.40;99.90;;;;;;5097723;28;20550;-78
2022/09/25 02:08:32;;;;;;;;;;;6.40;99.90;;;;;;5098893;28;20502;-78
2022/09/25 02:11:04;;;;;;;0.00;0.00;;;6.40;99.90;;;;;;5097285;28;19930;-79
2022/09/25 02:13:42;;;;;;;0.10;0.10;;;6.30;99.90;;;;;;5097128;28;20107;-78
2022/09/25 02:16:43;;;;;;;3.83;1.20;;;6.30;99.90;;;;;;5099153;28;20047;-77
2022/09/25 02:22:18;;;;;;;0.20;0.20;;;6.30;99.90;;;;;;5100898;28;20311;-80
2022/09/25 02:25:10;;;;;;;0.08;0.08;;;6.30;99.90;;;;;;5101072;28;20044;-77
2022/09/25 02:27:36;;;;;;;0.00;0.00;;;6.20;99.90;;;;;;5100464;28;20048;-79
2022/09/25 02:30:02;;;;;;;0.68;0.68;;;6.20;99.90;;;;;;5099272;28;20115;-78
2022/09/25 02:32:30;;;;;;;1.13;0.80;;;6.20;99.90;;;;;;5100467;28;20079;-78
2022/09/25 02:34:58;;;;;;;0.55;0.55;;;6.20;99.90;;;;;;5101228;28;20048;-77
2022/09/25 02:37:25;;;;;;;0.70;0.65;;;6.20;99.90;;;;;;5101570;28;20156;-78
2022/09/25 02:39:56;;;;;;;0.63;0.40;;;6.20;99.90;;;;;;5100799;28;20055;-77
2022/09/25 02:42:49;;;;;;;0.28;0.22;;;6.10;99.90;;;;;;5103847;28;20073;-77
2022/09/25 02:45:36;;;;;;;0.00;0.00;;;6.00;99.90;;;;;;5087785;28;20051;-78
2022/09/25 02:48:25;;;;;;;0.00;0.00;;;6.50;99.90;;;;;;5106169;28;20093;-77
2022/09/25 02:51:11;;;;;;;0.00;0.00;;;5.90;99.90;;;;;;5069075;28;20074;-77
2022/09/25 02:53:42;;;;;;;0.17;0.17;;;5.80;99.90;;;;;;5106376;28;20036;-77
2022/09/25 02:56:13;;;;;;;0.13;0.13;;;5.80;99.90;;;;;;5105889;28;20089;-79
2022/09/25 02:58:43;;;;;;;0.00;0.00;;;5.80;99.90;;;;;;5105874;28;20048;-79
2022/09/25 03:01:14;;;;;;;0.00;0.00;;;5.70;99.90;;;;;;5105780;28;20108;-80
2022/09/25 03:03:41;;;;;;;0.75;0.75;;;5.70;99.90;;;;;;5106721;28;20044;-80
2022/09/25 03:06:08;;;;;;;0.00;0.00;;;5.70;99.90;;;;;;5107282;28;20064;-78
2022/09/25 03:08:40;;;;;;;0.08;0.08;;;6.20;99.90;;;;;;5106372;28;20067;-79
2022/09/25 03:11:07;;;;;;;0.00;0.00;;;5.60;99.90;;;;;;5088994;28;20079;-78
2022/09/25 03:13:34;;;;;;;0.00;0.00;;;5.50;99.90;;;;;;5106401;28;20058;-79
2022/09/25 03:16:29;;;;;;;0.17;0.17;;;5.50;99.90;;;;;;5106281;28;20103;-78
2022/09/25 03:18:55;;;;;;;0.00;0.00;;;5.50;99.90;;;;;;5104139;28;20052;-78
2022/09/25 03:21:21;;;;;;;0.00;0.00;;;5.40;99.90;;;;;;5103113;28;20103;-77
2022/09/25 03:23:47;;;;;;;1.80;1.65;;;5.40;99.90;;;;;;5100979;28;20043;-78
2022/09/25 03:26:12;;;;;;;0.30;0.30;;;5.40;99.90;;;;;;5104351;28;20044;-79
2022/09/25 03:28:38;;;;;;;0.00;0.00;;;5.30;99.90;;;;;;5104136;28;20044;-78
2022/09/25 03:31:10;;;;;;;0.00;0.00;;;5.30;99.90;;;;;;5104960;28;20040;-78
2022/09/25 03:33:40;;;;;;;0.00;0.00;;;5.30;99.90;;;;;;5087770;28;20043;-79
2022/09/25 03:36:11;;;;;;;0.10;0.10;;;5.30;99.90;;;;;;5085555;28;20108;-78
2022/09/25 03:38:40;;;;;;;0.00;0.00;;;5.20;99.90;;;;;;5066827;28;20107;-79
2022/09/25 03:41:07;;;;;;;0.00;0.00;;;5.50;99.90;;;;;;5084010;28;20055;-77
2022/09/25 03:43:38;;;;;;;0.00;0.00;;;5.30;99.90;;;;;;5083861;28;20072;-78
2022/09/25 03:46:05;;;;;;;0.05;0.05;;;5.40;99.90;;;;;;5104887;28;20046;-77
2022/09/25 03:48:31;;;;;;;0.00;0.00;;;5.50;99.90;;;;;;5104287;28;20094;-77
2022/09/25 03:50:57;;;;;;;0.00;0.00;;;5.60;99.90;;;;;;5104656;28;20035;-77
2022/09/25 03:53:26;;;;;;;0.00;0.00;;;5.60;99.90;;;;;;5105158;28;20051;-78
2022/09/25 03:55:52;;;;;;;0.00;0.00;;;5.60;99.90;;;;;;5105480;28;20044;-77
2022/09/25 03:58:18;;;;;;;0.00;0.00;;;5.50;99.90;;;;;;5106803;28;20056;-78
2022/09/25 04:00:45;;;;;;;0.00;0.00;;;6.10;99.90;;;;;;5105462;28;20578;-78
2022/09/25 04:03:12;;;;;;;0.00;0.00;;;5.50;99.90;;;;;;5105135;28;20047;-78
2022/09/25 04:05:37;;;;;;;0.00;0.00;;;5.60;99.90;;;;;;5105843;28;20036;-77
2022/09/25 04:08:04;;;;;;;0.10;0.10;;;5.60;99.90;;;;;;5105307;28;20338;-78
2022/09/25 04:10:30;;;;;;;0.00;0.00;;;5.70;99.90;;;;;;5105343;28;20044;-77
2022/09/25 04:12:57;;;;;;;0.85;0.85;;;5.70;99.90;;;;;;5104127;28;20055;-77
2022/09/25 04:15:23;;;;;;;0.55;0.20;;;5.80;99.90;;;;;;5103910;28;20070;-79
2022/09/25 04:17:49;;;;;;;0.10;0.10;;;5.80;99.90;;;;;;5104562;28;20047;-78
2022/09/25 04:20:15;;;;;;;0.00;0.00;;;5.80;99.90;;;;;;5104273;28;20115;-78
2022/09/25 04:22:41;;;;;;;0.00;0.00;;;5.90;99.90;;;;;;5104774;28;20035;-79
2022/09/25 04:25:08;;;;;;;0.00;0.00;;;5.80;99.90;;;;;;5087257;28;20056;-77
2022/09/25 04:27:43;;;;;;;0.30;0.13;;;5.70;99.90;;;;;;5087913;28;20074;-78
2022/09/25 04:30:09;;;;;;;0.75;0.63;;;5.70;99.90;;;;;;5105590;28;20055;-79
2022/09/25 04:35:19;;;;;;;0.25;0.25;;;5.50;99.90;;;;;;5106213;28;20055;-76
2022/09/25 04:37:45;;;;;;;0.00;0.00;;;5.40;99.90;;;;;;5104717;28;20739;-80
2022/09/25 04:40:10;;;;;;;0.00;0.00;;;5.30;99.90;;;;;;5104879;28;20044;-79
2022/09/25 04:42:36;;;;;;;0.57;0.55;;;5.20;99.90;;;;;;5100533;28;20043;-78
2022/09/25 04:45:02;;;;;;;0.00;0.00;;;5.20;99.90;;;;;;5103656;28;20047;-78
2022/09/25 04:47:28;;;;;;;0.00;0.00;;;5.10;99.90;;;;;;5104430;28;20028;-78
2022/09/25 04:49:55;;;;;;;0.00;0.00;;;5.10;99.90;;;;;;5103406;28;20053;-78
2022/09/25 04:52:21;;;;;;;0.00;0.00;;;5.10;99.90;;;;;;5104525;28;20055;-77
2022/09/25 04:54:47;;;;;;;0.00;0.00;;;5.00;99.90;;;;;;5085633;28;20044;-79
2022/09/25 04:57:18;;;;;;;0.55;0.55;;;5.00;99.90;;;;;;5102968;28;20040;-78
2022/09/25 04:59:44;;;;;;;0.20;0.10;;;5.00;99.90;;;;;;5104534;28;20032;-78
2022/09/25 05:02:11;;;;;;;0.00;0.00;;;5.60;99.90;;;;;;5104654;28;20050;-78
2022/09/25 05:04:37;;;;;;;0.00;0.00;;;4.90;99.90;;;;;;5105237;28;20023;-79
2022/09/25 05:07:03;;;;;;;0.00;0.00;;;4.90;99.90;;;;;;5104861;28;20038;-78
2022/09/25 05:09:30;;;;;;;0.00;0.00;;;5.00;99.90;;;;;;5105446;28;20036;-78
2022/09/25 05:11:56;;;;;;;0.00;0.00;;;4.90;99.90;;;;;;5106035;28;20049;-77
2022/09/25 05:14:22;;;;;;;0.08;0.08;;;4.80;99.90;;;;;;5104516;28;20044;-77
2022/09/25 05:16:48;;;;;;;0.00;0.00;;;4.80;99.90;;;;;;5086341;28;20040;-78
2022/09/25 05:19:14;;;;;;;0.00;0.00;;;4.80;99.90;;;;;;5103513;28;20028;-77
2022/09/25 05:21:40;;;;;;;0.00;0.00;;;4.80;99.90;;;;;;5103795;28;20339;-78
2022/09/25 05:24:07;;;;;;;0.00;0.00;;;4.80;99.90;;;;;;5103882;28;20086;-79
2022/09/25 05:26:34;;;;;;;0.30;0.30;;;4.80;99.90;;;;;;5104055;28;20048;-77
2022/09/25 05:29:00;;;;;;;0.00;0.00;;;4.80;99.90;;;;;;5105173;28;20035;-78
2022/09/25 05:31:26;;;;;;;0.13;0.13;;;4.80;99.90;;;;;;5105269;28;20016;-78
2022/09/25 05:33:52;;;;;;;0.13;0.13;;;4.90;99.90;;;;;;5104594;28;20043;-77
2022/09/25 05:36:19;;;;;;;0.00;0.00;;;4.90;99.90;;;;;;5087460;28;20048;-77
2022/09/25 05:38:45;;;;;;;0.00;0.00;;;4.90;99.90;;;;;;5105289;28;20032;-78
2022/09/25 05:41:11;;;;;;;0.00;0.00;;;4.90;99.90;;;;;;5104080;28;20036;-78
2022/09/25 05:43:42;;;;;;;0.00;0.00;;;4.90;99.90;;;;;;5104508;28;20086;-78
2022/09/25 05:46:08;;;;;;;0.43;0.40;;;4.90;99.90;;;;;;5104620;28;20036;-79
2022/09/25 05:48:34;;;;;;;0.00;0.00;;;4.90;99.90;;;;;;5104207;28;20051;-80
2022/09/25 05:51:00;;;;;;;0.00;0.00;;;4.90;99.90;;;;;;5104519;28;20075;-79
2022/09/25 05:53:26;;;;;;;0.10;0.10;;;5.00;99.90;;;;;;5103703;28;20059;-79
2022/09/25 05:55:54;;;;;;;0.00;0.00;;;5.00;99.90;;;;;;5103929;28;20044;-78
2022/09/25 05:58:20;;;;;;;0.57;0.57;;;5.10;99.90;;;;;;5104672;28;20368;-79
2022/09/25 06:00:47;;;;;;;0.00;0.00;;;5.20;99.90;;;;;;5104206;28;20072;-78
2022/09/25 06:03:13;;;;;;;0.00;0.00;;;5.20;99.90;;;;;;5104376;28;20070;-78
2022/09/25 06:05:39;;;;;;;0.00;0.00;;;5.30;99.90;;;;;;5103998;28;20063;-78
2022/09/25 06:08:06;;;;;;;0.00;0.00;;;5.30;99.90;;;;;;5103908;28;20032;-79
2022/09/25 06:10:32;;;;;;;0.17;0.17;;;5.40;99.90;;;;;;5104148;28;20044;-78
2022/09/25 06:12:59;;;;;;;0.00;0.00;;;5.50;99.90;;;;;;5104117;28;20044;-78
2022/09/25 06:15:26;;;;;;;0.00;0.00;;;5.50;99.90;;;;;;5103834;28;20060;-78
2022/09/25 06:17:52;;;;;;;0.00;0.00;;;5.60;99.90;;;;;;5105607;28;20075;-78
2022/09/25 06:20:19;;;;;;;0.00;0.00;;;5.70;99.90;;;;;;5107463;28;20062;-79
2022/09/25 06:22:52;;;;;;;0.00;0.00;;;5.90;99.90;;;;;;5107098;28;20050;-78
2022/09/25 06:25:18;;;;;;;0.35;0.28;;;5.90;99.90;;;;;;5107304;28;20044;-78
2022/09/25 06:27:43;;;;;;;0.00;0.00;;;6.10;99.90;;;;;;5106747;28;20077;-78
2022/09/25 06:30:09;;;;;;;0.00;0.00;;;6.40;99.90;;;;;;5107469;28;20048;-78
2022/09/25 06:32:35;;;;;;;0.00;0.00;;;6.50;99.90;;;;;;5106834;28;20052;-77
2022/09/25 06:35:00;;;;;;;0.52;0.52;;;6.70;99.90;;;;;;5107940;28;20596;-78
2022/09/25 06:37:26;;;;;;;0.08;0.08;;;6.80;99.90;;;;;;5107164;28;20036;-78
2022/09/25 06:39:52;;;;;;;0.35;0.35;;;7.00;99.90;;;;;;5107818;28;20070;-78
2022/09/25 06:42:17;;;;;;;0.10;0.10;;;7.50;99.90;;;;;;5087602;28;20051;-78
2022/09/25 06:44:43;;;;;;;0.00;0.00;;;7.20;99.90;;;;;;5105568;28;20054;-78
2022/09/25 06:47:11;;;;;;;0.30;0.30;;;7.30;99.90;;;;;;5104047;28;20055;-78
2022/09/25 06:49:37;;;;;;;0.13;0.13;;;7.30;99.90;;;;;;5103564;28;20104;-78
2022/09/25 06:52:03;;;;;;;0.00;0.00;;;7.40;99.90;;;;;;5102148;28;20077;-78
2022/09/25 06:54:30;;;;;;;9.63;1.65;;;7.60;99.90;;;;;;5102170;28;20438;-76
2022/09/25 06:56:56;;;;;;;0.32;0.05;;;7.70;99.90;;;;;;5102062;28;20048;-77
2022/09/25 06:59:24;;;;;;;0.00;0.00;;;7.70;99.90;;;;;;5101151;28;20059;-77
2022/09/25 07:01:50;;;;;;;0.05;0.05;;;7.90;99.90;;;;;;5100844;28;20056;-76
2022/09/25 07:04:16;;;;;;;0.10;0.10;;;8.00;99.90;;;;;;5099804;28;20050;-77
2022/09/25 07:06:42;;;;;;;0.10;0.10;;;8.10;99.90;;;;;;5099562;28;20059;-77
2022/09/25 07:09:08;;;;;;;0.00;0.00;;;8.30;99.90;;;;;;5099995;28;20040;-79
2022/09/25 07:11:34;;;;;;;0.03;0.03;;;8.40;99.90;;;;;;5090314;28;20122;-78
2022/09/25 07:14:00;;;;;;;0.28;0.10;;;8.40;99.90;;;;;;5085908;28;20529;-79
2022/09/25 07:16:28;;;;;;;0.15;0.10;;;8.50;99.90;;;;;;5081887;28;20036;-77
2022/09/25 07:18:59;;;;;;;0.00;0.00;;;8.60;99.90;;;;;;5086771;28;20066;-78
2022/09/25 07:21:28;;;;;;;4.70;1.27;;;8.70;99.90;;;;;;5091944;28;20048;-76
2022/09/25 07:23:54;;;;;;;0.00;0.00;;;8.80;99.90;;;;;;5093858;28;20040;-78
2022/09/25 07:26:22;;;;;;;0.30;0.10;;;8.90;99.90;;;;;;5090897;28;20044;-78
2022/09/25 07:28:54;;;;;;;0.13;0.13;;;9.00;99.90;;;;;;5084154;28;20040;-77
2022/09/25 07:31:22;;;;;;;0.00;0.00;;;9.00;99.90;;;;;;5089766;28;20108;-77
2022/09/25 07:33:48;;;;;;;0.00;0.00;;;9.00;99.90;;;;;;5085040;28;20464;-78
2022/09/25 07:36:15;;;;;;;1.95;0.52;;;9.10;99.90;;;;;;5088318;28;20108;-78
2022/09/25 07:38:41;;;;;;;0.00;0.00;;;9.10;99.90;;;;;;5091880;28;20045;-79
2022/09/25 07:41:12;;;;;;;0.08;0.05;;;9.20;99.90;;;;;;5089357;28;20576;-80
2022/09/25 07:43:39;;;;;;;0.25;0.20;;;9.30;99.90;;;;;;5053003;28;20151;-79
2022/09/25 07:46:05;;;;;;;0.00;0.00;;;9.50;99.90;;;;;;5090174;28;20099;-78
2022/09/25 07:48:31;;;;;;;0.00;0.00;;;9.70;99.90;;;;;;5090128;28;20119;-80
2022/09/25 07:51:04;;;;;;;0.05;0.05;;;9.70;99.90;;;;;;5091104;28;20056;-79
2022/09/25 07:53:30;;;;;;;0.00;0.00;;;9.90;99.90;;;;;;5092693;28;20043;-80
2022/09/25 07:55:58;;;;;;;0.22;0.22;;;10.00;99.90;;;;;;5096673;28;20127;-80
2022/09/25 07:58:25;;;;;;;0.13;0.10;;;10.20;99.90;;;;;;5096193;28;20063;-80
2022/09/25 08:00:58;;;;;;;0.05;0.05;;;10.30;99.90;;;;;;5101368;28;20040;-80
2022/09/25 08:03:24;;;;;;;0.03;0.03;;;10.40;99.90;;;;;;5097073;28;20028;-80
2022/09/25 08:06:02;;;;;;;1.65;1.10;;;10.50;99.90;;;;;;5099086;28;20101;-79
2022/09/25 08:08:28;;;;;;;0.20;0.20;;;10.80;99.90;;;;;;5099659;28;20024;-80
2022/09/25 08:11:03;;;;;;;0.10;0.00;;;11.10;99.90;;;;;;5101101;28;20088;-79
2022/09/25 08:13:31;;;;;;;0.00;0.00;;;11.30;99.90;;;;;;5099642;28;20048;-80
2022/09/25 08:15:57;;;;;;;0.22;0.22;;;11.50;99.90;;;;;;5095967;28;20044;-80
2022/09/25 08:18:23;;;;;;;0.10;0.10;;;11.60;99.90;;;;;;5100672;28;20107;-80
2022/09/25 08:20:49;;;;;;;0.13;0.10;;;11.70;99.90;;;;;;5094707;28;20111;-79
2022/09/25 08:23:15;;;;;;;0.32;0.30;;;11.80;99.90;;;;;;5088027;28;20032;-81
2022/09/25 08:25:40;;;;;;;1.40;0.75;;;11.90;99.90;;;;;;5093951;28;20039;-80
2022/09/25 08:28:06;;;;;;;0.05;0.05;;;11.90;99.90;;;;;;5109565;28;20040;-81
2022/09/25 08:30:32;;;;;;;0.00;0.00;;;11.90;99.90;;;;;;5109361;28;20024;-81
2022/09/25 08:32:57;;;;;;;0.00;0.00;;;12.00;99.90;;;;;;5108022;28;20179;-82
2022/09/25 08:35:23;;;;;;;1.20;0.45;;;12.00;99.90;;;;;;5107921;28;20035;-81
2022/09/25 08:37:49;;;;;;;2.92;1.08;;;12.00;99.90;;;;;;5107146;28;20046;-80
2022/09/25 08:40:19;;;;;;;0.00;0.00;;;12.10;99.90;;;;;;5108409;28;20136;-82
2022/09/25 08:42:49;;;;;;;0.00;0.00;;;12.20;99.90;;;;;;5109718;28;20036;-81
2022/09/25 08:51:16;;;;;;;0.00;0.00;;;12.50;99.90;;;;;;5088236;28;20055;-80
2022/09/25 08:53:43;;;;;;;0.20;0.10;;;12.50;99.90;;;;;;5076167;28;20040;-78
2022/09/25 08:56:18;;;;;;;0.50;0.35;;;12.70;99.90;;;;;;5097063;28;20357;-81
2022/09/25 08:58:52;;;;;;;0.10;0.10;;;12.80;99.90;;;;;;5096292;28;20071;-81
2022/09/25 09:01:27;;;;;;;0.32;0.20;;;13.00;99.90;;;;;;5102494;28;20033;-81
2022/09/25 09:03:56;;;;;;;0.00;0.00;;;13.60;99.90;;;;;;5105014;28;20116;-78
2022/09/25 09:06:24;;;;;;;0.93;0.30;;;14.20;99.90;;;;;;5104217;28;20047;-78
2022/09/25 09:09:04;;;;;;;0.00;0.00;;;15.30;99.90;;;;;;5094694;28;20044;-76
2022/09/25 09:11:35;;;;;;;0.30;0.30;;;16.40;99.90;;;;;;5093589;28;20024;-81
2022/09/25 09:14:05;;;;;;;0.20;0.17;;;17.00;45.50;;;;;;5078469;28;20024;-80
2022/09/25 09:16:43;;;;;;;2.05;0.57;;;17.00;99.90;;;;;;5099344;28;20032;-79
2022/09/25 09:19:10;;;;;;;0.00;0.00;;;16.20;1.00;;;;;;5094361;28;20092;-80
2022/09/25 09:21:40;;;;;;;0.10;0.10;;;15.40;46.70;;;;;;5105530;28;20261;-79
2022/09/25 09:24:22;;;;;;;3.13;1.45;;;14.20;99.90;;;;;;5095988;28;20056;-81
2022/09/25 09:27:25;;;;;;;0.00;0.00;;;13.20;99.90;;;;;;5077033;28;20025;-81
2022/09/25 09:30:08;;;;;;;0.00;0.00;;;12.50;99.90;;;;;;5097664;28;20076;-78
2022/09/25 09:32:54;;;;;;;0.00;0.00;;;12.00;99.90;;;;;;5085115;28;20096;-80
2022/09/25 09:35:38;;;;;;;0.00;0.00;;;11.80;99.90;;;;;;5092711;28;20032;-80
2022/09/25 09:38:15;;;;;;;0.47;0.40;;;12.20;99.90;;;;;;5104307;28;20323;-80
2022/09/25 09:41:04;;;;;;;0.00;0.00;;;11.90;99.90;;;;;;5096350;28;20122;-80
2022/09/25 09:43:42;;;;;;;0.17;0.10;;;11.90;99.90;;;;;;5086065;28;20043;-80
2022/09/25 09:46:28;;;;;;;0.00;0.00;;;12.00;99.90;;;;;;5086137;28;20048;-80
2022/09/25 09:49:05;;;;;;;0.00;0.00;;;12.10;99.90;;;;;;5090422;28;20052;-79
2022/09/25 09:51:47;;;;;;;0.30;0.20;;;12.20;99.90;;;;;;5094310;28;20044;-79
2022/09/25 09:54:20;;;;;;;0.00;0.00;;;12.30;99.90;;;;;;5093329;28;20051;-79
2022/09/25 09:56:49;;;;;;;0.00;0.00;;;12.40;99.90;;;;;;5077443;28;20048;-80
2022/09/25 09:59:24;;;;;;;0.10;0.10;;;12.60;99.90;;;;;;5074207;28;20134;-79
2022/09/25 10:02:15;;;;;;;0.00;0.00;;;12.60;99.90;;;;;;5077648;28;20558;-83
2022/09/25 10:04:43;;;;;;;0.00;0.00;;;12.50;99.90;;;;;;5081482;28;20131;-82
2022/09/25 10:07:17;;;;;;;0.00;0.00;;;12.60;99.90;;;;;;5085951;28;20032;-83
2022/09/25 10:09:43;;;;;;;0.00;0.00;;;12.50;99.90;;;;;;5104960;28;20061;-82
2022/09/25 10:12:31;;;;;;;0.13;0.10;;;12.40;99.90;;;;;;5106825;28;20043;-85
2022/09/25 10:15:01;;;;;;;0.00;0.00;;;12.40;99.90;;;;;;5108682;28;20024;-82
2022/09/25 10:17:29;;;;;;;0.00;0.00;;;12.50;99.90;;;;;;5088002;28;20340;-82
2022/09/25 10:20:03;;;;;;;0.00;0.00;;;12.60;99.90;;;;;;5087683;28;20124;-81
2022/09/25 10:22:38;;;;;;;0.00;0.00;;;12.50;99.90;;;;;;5087402;28;20153;-81
2022/09/25 10:25:05;;;;;;;0.00;0.00;;;12.60;99.90;;;;;;5085859;28;20048;-78
2022/09/25 10:27:48;;;;;;;0.00;0.00;;;12.90;99.90;;;;;;5085807;28;20055;-79
2022/09/25 10:30:20;;;;;;;0.00;0.00;;;13.10;99.90;;;;;;5105059;28;20052;-79
2022/09/25 10:32:46;;;;;;;0.00;0.00;;;13.30;99.90;;;;;;5104860;28;20048;-77
2022/09/25 10:35:18;;;;;;;0.00;0.00;;;13.40;99.90;;;;;;5104545;28;20112;-79
2022/09/25 10:37:47;;;;;;;0.00;0.00;;;13.70;99.90;;;;;;5091613;28;20028;-79
2022/09/25 10:40:35;;;;;;;0.00;0.00;;;14.00;99.90;;;;;;5106919;28;20072;-76
2022/09/25 10:43:16;;;;;;;0.00;0.00;;;14.20;99.90;;;;;;5105377;28;20050;-78
2022/09/25 10:45:42;;;;;;;0.00;0.00;;;14.40;99.90;;;;;;5104902;28;20031;-79
2022/09/25 10:51:08;;;;;;;0.00;0.00;;;14.50;99.90;;;;;;5104812;28;20150;-77
2022/09/25 10:53:34;;;;;;;0.57;0.57;;;14.70;99.90;;;;;;5104485;28;20051;-79
2022/09/25 10:56:11;;;;;;;0.00;0.00;;;14.80;99.90;;;;;;5103086;28;20040;-78
2022/09/25 10:58:56;;;;;;;0.00;0.00;;;14.90;99.90;;;;;;5104097;28;20109;-78
2022/09/25 11:01:38;;;;;;;0.20;0.20;;;15.10;99.90;;;;;;5103493;28;20055;-79
2022/09/25 11:04:23;;;;;;;1.92;0.50;;;15.30;99.90;;;;;;5104152;28;20099;-77
2022/09/25 11:06:52;;;;;;;0.00;0.00;;;15.60;99.90;;;;;;5099784;28;20047;-78
2022/09/25 11:09:26;;;;;;;0.10;0.08;;;15.60;99.90;;;;;;5100795;28;20497;-79
2022/09/25 11:12:03;;;;;;;0.98;0.08;;;15.50;99.90;;;;;;5099825;28;20044;-78
2022/09/25 11:14:32;;;;;;;0.20;0.20;;;15.60;99.90;;;;;;5099698;28;20044;-78
2022/09/25 11:17:07;;;;;;;0.00;0.00;;;15.60;99.90;;;;;;5098672;28;20075;-77
2022/09/25 11:19:33;;;;;;;0.00;0.00;;;15.70;99.90;;;;;;5097399;28;20440;-77
2022/09/25 11:22:03;;;;;;;0.00;0.00;;;15.70;99.90;;;;;;5098542;28;20047;-78
2022/09/25 11:24:48;;;;;;;0.10;0.10;;;16.30;99.90;;;;;;5099133;28;20063;-78
2022/09/25 11:27:46;;;;;;;0.00;0.00;;;15.60;99.90;;;;;;5098216;28;20447;-78
2022/09/25 11:30:16;;;;;;;0.25;0.25;;;15.60;99.90;;;;;;5097799;28;20056;-78
2022/09/25 11:33:11;;;;;;;0.00;0.00;;;15.70;99.90;;;;;;5094465;28;20425;-78
2022/09/25 11:36:01;;;;;;;0.00;0.00;;;15.60;99.90;;;;;;5087836;28;20173;-78
2022/09/25 11:41:34;;;;;;;0.43;0.43;;;16.40;99.90;;;;;;5103943;28;20024;-78
2022/09/25 11:44:31;;;;;;;29.58;0.93;;;16.90;99.90;;;;;;5082561;28;20056;-78
2022/09/25 11:47:35;;;;;;;0.10;0.10;;;17.40;1.00;;;;;;5099793;28;20131;-77
2022/09/25 11:50:02;;;;;;;0.08;0.00;;;18.20;1.00;;;;;;5079229;28;20048;-79
2022/09/25 11:53:16;;;;;;;0.00;0.00;;;18.90;99.90;;;;;;5077666;28;20052;-78
2022/09/25 11:56:17;;;;;;;1.10;0.60;;;19.30;1.00;;;;;;5017048;28;20077;-77
2022/09/25 11:58:54;;;;;;;0.10;0.10;;;19.10;99.90;;;;;;5009579;28;20050;-77
2022/09/25 12:01:41;;;;;;;0.00;0.00;;;17.90;99.90;;;;;;5094897;28;20085;-77
2022/09/25 12:04:18;;;;;;;0.00;0.00;;;16.60;99.90;;;;;;5107788;28;20040;-78
2022/09/25 12:06:52;;;;;;;0.00;0.00;;;15.60;1.00;;;;;;5106127;28;20105;-77
2022/09/25 12:09:45;;;;;;;0.17;0.10;;;15.10;99.90;;;;;;5106069;28;20109;-77
2022/09/25 12:12:26;;;;;;;0.47;0.15;;;15.30;99.90;;;;;;5105643;28;20519;-77
2022/09/25 12:15:08;;;;;;;0.00;0.00;;;15.40;99.90;;;;;;5105583;28;20040;-77
2022/09/25 12:18:12;;;;;;;0.00;0.00;;;15.60;99.90;;;;;;5106637;28;20079;-78
2022/09/25 12:20:59;;;;;;;0.00;0.00;;;16.40;99.90;;;;;;5106743;28;20052;-77
2022/09/25 12:23:56;;;;;;;1.17;0.77;;;17.20;92.00;;;;;;5105585;28;20040;-77
2022/09/25 12:26:37;;;;;;;0.00;0.00;;;17.50;99.90;;;;;;5106599;28;20058;-78
2022/09/25 12:29:24;;;;;;;0.00;0.00;;;18.10;1.00;;;;;;5101536;28;20064;-78
2022/09/25 12:32:08;;;;;;;0.00;0.00;;;18.60;99.90;;;;;;5098769;28;20052;-79
2022/09/25 12:34:40;;;;;;;4.85;0.45;;;19.20;99.90;;;;;;5104330;28;20032;-77
2022/09/25 12:37:42;;;;;;;0.00;0.00;;;19.50;99.90;;;;;;5108389;28;20048;-77
2022/09/25 12:40:30;;;;;;;0.30;0.17;;;20.30;99.90;;;;;;5106826;28;20092;-78
2022/09/25 12:43:17;;;;;;;0.00;0.00;;;21.10;99.90;;;;;;5108730;28;20075;-77
2022/09/25 12:45:48;;;;;;;0.08;0.08;;;21.50;99.90;;;;;;5107584;28;20061;-77
2022/09/25 12:48:19;;;;;;;0.30;0.15;;;21.60;99.90;;;;;;5107044;28;20068;-77
2022/09/25 12:51:13;;;;;;;0.60;0.22;;;20.80;99.90;;;;;;5108851;28;20047;-76
2022/09/25 12:53:44;;;;;;;0.08;0.03;;;20.00;99.90;;;;;;5106054;28;20047;-77
2022/09/25 12:56:09;;;;;;;0.28;0.20;;;19.20;99.90;;;;;;5107899;28;20052;-77
2022/09/25 12:58:40;;;;;;;0.35;0.10;;;18.40;99.90;;;;;;5106081;28;20036;-78
2022/09/25 13:01:24;;;;;;;0.00;0.00;;;17.80;99.90;;;;;;5089727;28;20047;-77
2022/09/25 13:04:15;;;;;;;0.00;0.00;;;17.30;99.90;;;;;;5107787;28;20163;-77
2022/09/25 13:07:08;;;;;;;0.20;0.10;;;17.00;99.90;;;;;;5103086;28;20048;-77
2022/09/25 13:09:46;;;;;;;0.00;0.00;;;17.00;99.90;;;;;;5098170;28;20070;-76
2022/09/25 13:12:36;;;;;;;0.00;0.00;;;17.10;99.90;;;;;;5084175;28;20055;-78
2022/09/25 13:15:11;;;;;;;0.00;0.00;;;17.90;99.90;;;;;;5087801;28;20048;-76
2022/09/25 13:17:38;;;;;;;0.10;0.10;;;18.40;99.90;;;;;;5107211;28;20044;-77
2022/09/25 13:20:30;;;;;;;0.98;0.20;;;18.20;99.90;;;;;;5108417;28;20048;-78
2022/09/25 13:22:58;;;;;;;0.15;0.10;;;18.00;99.90;;;;;;5107594;28;20047;-78
2022/09/25 13:25:25;;;;;;;0.00;0.00;;;17.30;99.90;;;;;;5105467;28;20067;-77
2022/09/25 13:27:53;;;;;;;0.00;0.00;;;16.90;99.90;;;;;;5106913;28;20040;-78
2022/09/25 13:30:37;;;;;;;0.10;0.08;;;16.60;99.90;;;;;;5089338;28;20043;-77
2022/09/25 13:33:02;;;;;;;0.10;0.03;;;17.30;1.00;;;;;;5104435;28;20032;-78
2022/09/25 13:35:31;;;;;;;1.65;0.47;;;17.90;99.90;;;;;;5102609;28;20028;-77
2022/09/25 13:41:13;;;;;;;0.10;0.08;;;18.60;99.90;;;;;;5106843;28;20050;-78
2022/09/25 13:43:39;;;;;;;0.57;0.45;;;18.80;99.90;;;;;;5103186;28;20036;-77
2022/09/25 13:46:14;;;;;;;1.08;0.57;;;19.60;99.90;;;;;;5102504;28;20036;-78